Time;durP1;ratioP1;P1;durP2;ratioP2;P2;SDS_P1;SDS_P2;PMS_P1;PMS_P2;Temp;Humidity;BMP_temperature;BMP_pressure;BME280_temperature;BME280_humidity;BME280_pressure;Samples;Min_cycle;Max_cycle;Signal;HPM_P1;HPM_P2
2022/12/07 00:01:43;;;;;;;7.50;0.50;;;4.20;99.90;;;;;;4232328;28;20048;-85
2022/12/07 00:03:47;;;;;;;6.65;1.05;;;4.50;99.90;;;;;;4230888;28;20047;-85
2022/12/07 00:05:48;;;;;;;6.90;0.85;;;3.90;99.90;;;;;;4200980;28;20048;-85
2022/12/07 00:07:49;;;;;;;6.68;0.80;;;3.80;99.90;;;;;;4196270;28;20127;-85
2022/12/07 00:09:51;;;;;;;10.88;1.08;;;4.50;99.90;;;;;;4196379;28;20083;-85
2022/12/07 00:11:52;;;;;;;4.18;0.60;;;3.70;99.90;;;;;;4213948;28;20064;-85
2022/12/07 00:13:58;;;;;;;2.67;0.65;;;3.80;99.90;;;;;;4196063;28;20505;-84
2022/12/07 00:16:06;;;;;;;6.97;0.85;;;4.60;99.90;;;;;;4212287;28;20069;-85
2022/12/07 00:18:07;;;;;;;9.98;1.08;;;3.80;99.90;;;;;;4196551;28;20060;-85
2022/12/07 00:20:08;;;;;;;3.97;1.25;;;4.50;99.90;;;;;;4212780;28;20044;-85
2022/12/07 00:22:09;;;;;;;3.70;0.60;;;3.30;99.90;;;;;;4214016;28;20090;-84
2022/12/07 00:24:11;;;;;;;7.15;0.68;;;3.80;99.90;;;;;;4214085;28;20040;-85
2022/12/07 00:26:18;;;;;;;7.85;0.82;;;3.80;99.90;;;;;;4196653;28;20052;-84
2022/12/07 00:28:19;;;;;;;5.25;0.70;;;3.70;99.90;;;;;;4215530;28;20052;-85
2022/12/07 00:30:20;;;;;;;2.38;0.63;;;2.70;99.90;;;;;;4216285;28;20123;-85
2022/12/07 00:32:22;;;;;;;4.25;1.02;;;3.80;99.90;;;;;;4216027;28;20047;-84
2022/12/07 00:34:23;;;;;;;2.47;0.60;;;3.80;99.90;;;;;;4217394;28;20435;-85
2022/12/07 00:36:25;;;;;;;1.70;0.40;;;3.80;99.90;;;;;;4216927;28;20101;-84
2022/12/07 00:38:29;;;;;;;5.18;1.08;;;4.30;99.90;;;;;;4225159;28;20040;-85
2022/12/07 00:40:31;;;;;;;2.53;0.68;;;3.10;99.90;;;;;;4232984;28;20056;-85
2022/12/07 00:42:33;;;;;;;3.90;0.60;;;4.00;99.90;;;;;;4232617;28;20792;-84
2022/12/07 00:44:35;;;;;;;6.60;0.95;;;4.00;99.90;;;;;;4232429;28;20039;-84
2022/12/07 00:46:36;;;;;;;3.10;0.90;;;4.20;99.90;;;;;;4215962;28;20459;-84
2022/12/07 00:48:39;;;;;;;7.93;0.60;;;3.40;99.90;;;;;;4215816;28;20048;-85
2022/12/07 00:50:40;;;;;;;2.38;0.35;;;4.40;99.90;;;;;;4233967;28;20043;-85
2022/12/07 00:52:41;;;;;;;3.35;1.00;;;5.20;99.90;;;;;;4221554;27;20511;-85
2022/12/07 00:54:42;;;;;;;2.75;0.30;;;4.70;99.90;;;;;;4216221;28;20043;-85
2022/12/07 00:56:43;;;;;;;5.32;0.55;;;4.00;99.90;;;;;;4216469;28;20051;-85
2022/12/07 00:58:43;;;;;;;2.08;0.22;;;4.00;99.90;;;;;;4199230;28;20080;-85
2022/12/07 01:00:45;;;;;;;4.60;0.90;;;4.00;99.90;;;;;;4216253;28;20044;-84
2022/12/07 01:02:45;;;;;;;7.03;0.45;;;4.00;99.90;;;;;;4217596;28;20484;-85
2022/12/07 01:04:46;;;;;;;3.85;0.57;;;4.00;99.90;;;;;;4216405;28;20052;-87
2022/12/07 01:06:48;;;;;;;2.50;0.30;;;3.90;99.90;;;;;;4215478;28;20151;-84
2022/12/07 01:08:49;;;;;;;6.45;0.55;;;4.60;99.90;;;;;;4199123;28;20127;-84
2022/12/07 01:10:59;;;;;;;3.92;0.93;;;2.80;99.90;;;;;;4216848;28;20377;-84
2022/12/07 01:13:00;;;;;;;4.50;0.75;;;4.00;99.90;;;;;;4217058;28;20040;-83
2022/12/07 01:15:00;;;;;;;7.05;0.98;;;4.20;99.90;;;;;;4215957;28;20044;-84
2022/12/07 01:17:01;;;;;;;3.25;0.50;;;3.90;99.90;;;;;;4217187;28;20488;-83
2022/12/07 01:19:04;;;;;;;3.00;0.63;;;5.30;99.90;;;;;;4198549;28;20044;-83
2022/12/07 01:21:12;;;;;;;1.90;0.60;;;3.90;99.90;;;;;;4216868;28;20056;-84
2022/12/07 01:23:13;;;;;;;5.05;0.55;;;3.80;99.90;;;;;;4199394;28;20064;-84
2022/12/07 01:25:14;;;;;;;3.08;0.43;;;4.40;99.90;;;;;;4215885;28;20035;-85
2022/12/07 01:27:16;;;;;;;5.82;0.77;;;3.80;99.90;;;;;;4217278;28;20101;-85
2022/12/07 01:29:17;;;;;;;4.72;0.70;;;3.80;99.90;;;;;;4199390;28;20051;-85
2022/12/07 01:31:21;;;;;;;5.57;1.05;;;3.70;99.90;;;;;;4215500;28;20102;-85
2022/12/07 01:33:22;;;;;;;3.00;0.65;;;3.80;99.90;;;;;;4215727;28;20047;-85
2022/12/07 01:35:23;;;;;;;8.73;0.98;;;3.80;99.90;;;;;;4216588;28;20101;-85
2022/12/07 01:37:24;;;;;;;12.43;1.05;;;3.80;99.90;;;;;;4215698;28;20056;-84
2022/12/07 01:39:25;;;;;;;4.25;1.27;;;3.90;99.90;;;;;;4215153;28;20048;-84
2022/12/07 01:41:28;;;;;;;9.18;1.10;;;4.60;99.90;;;;;;4216955;28;20044;-84
2022/12/07 01:43:32;;;;;;;8.32;1.25;;;4.00;99.90;;;;;;4216608;28;20475;-84
2022/12/07 01:45:40;;;;;;;5.05;0.55;;;3.00;99.90;;;;;;4224342;28;20076;-84
2022/12/07 01:47:44;;;;;;;3.58;0.63;;;4.00;99.90;;;;;;4215346;28;20500;-84
2022/12/07 01:49:48;;;;;;;5.25;0.60;;;4.30;99.90;;;;;;4232091;28;20050;-84
2022/12/07 01:51:54;;;;;;;7.93;0.82;;;4.90;99.90;;;;;;4233508;28;20387;-84
2022/12/07 01:53:55;;;;;;;1.80;0.30;;;4.10;99.90;;;;;;4233946;28;20050;-84
2022/12/07 01:55:59;;;;;;;4.88;1.10;;;4.10;99.90;;;;;;4232666;28;20044;-84
2022/12/07 01:58:01;;;;;;;3.05;0.60;;;4.10;99.90;;;;;;4233291;28;20122;-84
2022/12/07 02:00:04;;;;;;;6.38;0.95;;;4.60;99.90;;;;;;4233521;28;20043;-84
2022/12/07 02:02:16;;;;;;;2.47;0.85;;;4.00;99.90;;;;;;4233264;28;20055;-85
2022/12/07 02:04:18;;;;;;;5.65;0.70;;;4.00;99.90;;;;;;4228154;27;20043;-84
2022/12/07 02:06:23;;;;;;;2.42;0.57;;;4.00;99.90;;;;;;4224472;27;20097;-85
2022/12/07 02:08:24;;;;;;;4.72;0.63;;;5.20;99.90;;;;;;4216259;28;20048;-84
2022/12/07 02:10:29;;;;;;;7.15;1.13;;;4.40;99.90;;;;;;4225113;28;20115;-84
2022/12/07 02:12:30;;;;;;;10.48;0.70;;;3.90;99.90;;;;;;4231890;28;20860;-84
2022/12/07 02:14:31;;;;;;;4.03;0.55;;;3.90;99.90;;;;;;4233149;28;20051;-85
2022/12/07 02:16:52;;;;;;;2.88;0.73;;;3.80;99.90;;;;;;4215028;28;20055;-84
2022/12/07 02:19:05;;;;;;;4.95;0.70;;;3.80;99.90;;;;;;4204446;28;20050;-85
2022/12/07 02:21:15;;;;;;;3.30;0.68;;;3.80;99.90;;;;;;4216501;28;20044;-84
2022/12/07 02:23:22;;;;;;;7.32;1.05;;;3.70;99.90;;;;;;4198120;28;20060;-83
2022/12/07 02:25:41;;;;;;;3.85;0.90;;;3.70;99.90;;;;;;4216710;28;20036;-85
2022/12/07 02:28:07;;;;;;;4.43;0.60;;;3.70;99.90;;;;;;4215134;28;20058;-84
2022/12/07 02:30:20;;;;;;;7.32;0.93;;;3.60;99.90;;;;;;4216468;28;20381;-85
2022/12/07 02:32:27;;;;;;;4.20;0.50;;;3.60;99.90;;;;;;4214812;28;20052;-85
2022/12/07 02:34:37;;;;;;;5.80;1.58;;;3.50;99.90;;;;;;4227991;28;20035;-86
2022/12/07 02:36:45;;;;;;;4.00;0.68;;;3.60;99.90;;;;;;4220766;28;20122;-85
2022/12/07 02:39:01;;;;;;;4.70;0.65;;;3.50;99.90;;;;;;4216423;28;20051;-86
2022/12/07 02:41:10;;;;;;;4.15;0.65;;;3.60;99.90;;;;;;4198856;28;20055;-84
2022/12/07 02:43:26;;;;;;;5.03;0.60;;;3.60;99.90;;;;;;4217499;28;20067;-84
2022/12/07 02:45:36;;;;;;;3.65;0.40;;;3.60;99.90;;;;;;4218861;28;20055;-84
2022/12/07 02:47:38;;;;;;;6.13;0.73;;;4.50;99.90;;;;;;4220677;28;20557;-84
2022/12/07 02:49:40;;;;;;;4.70;0.52;;;4.30;99.90;;;;;;4220288;28;20108;-84
2022/12/07 02:51:43;;;;;;;9.65;0.70;;;4.90;99.90;;;;;;4208280;28;20089;-84
2022/12/07 02:53:44;;;;;;;6.03;0.98;;;3.70;99.90;;;;;;4218471;28;20044;-84
2022/12/07 02:55:45;;;;;;;2.33;0.40;;;3.50;99.90;;;;;;4219337;28;20128;-84
2022/12/07 02:58:03;;;;;;;3.45;0.70;;;4.00;99.90;;;;;;4235545;28;20055;-84
2022/12/07 03:00:12;;;;;;;6.47;1.33;;;3.70;99.90;;;;;;4236723;28;20099;-84
2022/12/07 03:02:20;;;;;;;1.85;0.50;;;3.60;99.90;;;;;;4235827;28;20059;-85
2022/12/07 03:04:46;;;;;;;4.78;0.60;;;3.70;99.90;;;;;;4233695;28;20036;-84
2022/12/07 03:06:59;;;;;;;5.03;1.05;;;3.60;99.90;;;;;;4215413;28;20127;-84
2022/12/07 03:09:13;;;;;;;3.78;0.80;;;3.60;99.90;;;;;;4206845;28;20607;-84
2022/12/07 03:11:25;;;;;;;3.13;0.60;;;3.60;99.90;;;;;;4215629;28;20098;-85
2022/12/07 03:13:34;;;;;;;3.25;0.93;;;4.00;99.90;;;;;;4215795;28;20087;-85
2022/12/07 03:15:37;;;;;;;2.92;0.40;;;3.50;99.90;;;;;;4198245;28;20102;-85
2022/12/07 03:17:44;;;;;;;5.50;0.57;;;3.50;99.90;;;;;;4215361;28;20126;-84
2022/12/07 03:19:46;;;;;;;4.28;0.43;;;4.00;99.90;;;;;;4216572;28;20052;-85
2022/12/07 03:21:59;;;;;;;7.53;1.48;;;3.60;99.90;;;;;;4217788;28;20048;-85
2022/12/07 03:24:07;;;;;;;7.28;0.70;;;3.60;99.90;;;;;;4199908;28;20047;-85
2022/12/07 03:26:11;;;;;;;4.68;0.90;;;3.60;99.90;;;;;;4222158;28;20392;-85
2022/12/07 03:28:16;;;;;;;5.05;0.52;;;3.70;99.90;;;;;;4233761;28;20171;-85
2022/12/07 03:30:24;;;;;;;9.75;1.30;;;3.90;99.90;;;;;;4233541;28;20097;-85
2022/12/07 03:32:45;;;;;;;8.13;0.95;;;3.70;99.90;;;;;;4218241;28;20047;-85
2022/12/07 03:34:58;;;;;;;5.00;0.60;;;3.70;99.90;;;;;;4232815;28;20567;-86
2022/12/07 03:37:34;;;;;;;6.25;0.63;;;4.50;99.90;;;;;;4231202;28;20134;-85
2022/12/07 03:40:01;;;;;;;4.90;0.40;;;3.70;99.90;;;;;;4225537;28;20461;-85
2022/12/07 03:42:05;;;;;;;6.57;0.60;;;3.90;99.90;;;;;;4230565;28;20060;-85
2022/12/07 03:44:07;;;;;;;6.78;0.82;;;3.70;99.90;;;;;;4214470;28;20056;-84
2022/12/07 03:46:19;;;;;;;4.63;0.50;;;3.80;99.90;;;;;;4231180;28;20050;-85
2022/12/07 03:48:24;;;;;;;4.10;0.65;;;3.80;99.90;;;;;;4231103;28;20538;-85
2022/12/07 03:51:02;;;;;;;2.17;0.63;;;4.40;99.90;;;;;;4232435;28;20075;-84
2022/12/07 03:53:26;;;;;;;6.40;1.02;;;3.80;99.90;;;;;;4208154;28;20137;-84
2022/12/07 03:55:39;;;;;;;3.70;0.40;;;3.80;99.90;;;;;;4213935;28;20048;-85
2022/12/07 03:57:41;;;;;;;3.15;0.60;;;3.90;99.90;;;;;;4231010;28;20066;-84
2022/12/07 03:59:43;;;;;;;4.60;0.73;;;4.50;99.90;;;;;;4224213;28;20040;-85
2022/12/07 04:01:51;;;;;;;2.67;0.38;;;3.80;99.90;;;;;;4198169;28;20558;-85
2022/12/07 04:03:52;;;;;;;3.50;0.43;;;3.60;99.90;;;;;;4218115;28;20062;-85
2022/12/07 04:05:53;;;;;;;4.90;0.30;;;3.60;99.90;;;;;;4217874;28;20079;-85
2022/12/07 04:07:55;;;;;;;2.25;0.85;;;3.60;99.90;;;;;;4218829;28;20400;-85
2022/12/07 04:09:56;;;;;;;1.50;0.28;;;3.50;99.90;;;;;;4200292;28;20540;-85
2022/12/07 04:11:57;;;;;;;7.15;0.70;;;3.50;99.90;;;;;;4200343;28;20452;-85
2022/12/07 04:14:18;;;;;;;5.05;0.60;;;4.00;99.90;;;;;;4200593;28;20140;-85
2022/12/07 04:16:19;;;;;;;2.42;0.50;;;3.40;99.90;;;;;;4235101;28;20071;-85
2022/12/07 04:18:19;;;;;;;4.25;0.55;;;4.30;99.90;;;;;;4234485;28;20043;-85
2022/12/07 04:20:21;;;;;;;3.45;0.57;;;3.30;99.90;;;;;;4217853;28;20048;-85
2022/12/07 04:22:22;;;;;;;4.35;0.32;;;4.00;99.90;;;;;;4235413;28;20046;-85
2022/12/07 04:24:24;;;;;;;5.45;0.50;;;3.30;99.90;;;;;;4234180;28;20044;-85
2022/12/07 04:26:24;;;;;;;12.93;0.73;;;3.30;99.90;;;;;;4235424;28;20048;-85
2022/12/07 04:28:25;;;;;;;3.72;0.50;;;4.10;99.90;;;;;;4234988;28;20457;-85
2022/12/07 04:30:26;;;;;;;5.90;1.08;;;4.30;99.90;;;;;;4217227;28;20127;-85
2022/12/07 04:32:27;;;;;;;7.30;0.73;;;3.80;99.90;;;;;;4234617;28;20211;-85
2022/12/07 04:34:28;;;;;;;5.28;0.68;;;3.30;99.90;;;;;;4234183;28;20556;-85
2022/12/07 04:36:31;;;;;;;1.80;0.32;;;3.30;99.90;;;;;;4233735;28;20039;-85
2022/12/07 04:38:32;;;;;;;21.40;2.15;;;3.60;99.90;;;;;;4235230;28;20097;-85
2022/12/07 04:40:35;;;;;;;1.45;0.35;;;3.30;99.90;;;;;;4216590;28;20131;-85
2022/12/07 04:42:36;;;;;;;4.90;0.60;;;3.40;99.90;;;;;;4217111;28;20059;-84
2022/12/07 04:44:38;;;;;;;0.88;0.30;;;3.50;99.90;;;;;;4234388;28;20055;-84
2022/12/07 04:46:38;;;;;;;3.47;0.57;;;3.50;99.90;;;;;;4234914;28;20070;-84
2022/12/07 04:48:39;;;;;;;4.22;0.40;;;4.40;99.90;;;;;;4219630;28;20048;-84
2022/12/07 04:50:40;;;;;;;2.85;0.43;;;4.50;99.90;;;;;;4217655;28;20400;-84
2022/12/07 04:52:42;;;;;;;8.30;0.98;;;3.50;99.90;;;;;;4200298;28;20558;-85
2022/12/07 04:54:43;;;;;;;3.75;0.82;;;3.50;99.90;;;;;;4217621;28;20495;-85
2022/12/07 04:56:45;;;;;;;3.97;0.70;;;4.10;99.90;;;;;;4201761;28;20076;-86
2022/12/07 04:58:48;;;;;;;3.00;0.60;;;3.40;99.90;;;;;;4218840;28;20059;-84
2022/12/07 05:00:48;;;;;;;5.57;0.35;;;3.30;99.90;;;;;;4219572;28;20135;-84
2022/12/07 05:02:49;;;;;;;4.05;0.47;;;3.30;99.90;;;;;;4217256;28;20059;-84
2022/12/07 05:04:50;;;;;;;2.90;0.80;;;3.30;99.90;;;;;;4226880;28;20043;-85
2022/12/07 05:06:51;;;;;;;5.40;0.55;;;3.20;99.90;;;;;;4216708;28;20048;-84
2022/12/07 05:08:52;;;;;;;3.10;0.50;;;3.50;99.90;;;;;;4234327;28;20077;-86
2022/12/07 05:10:53;;;;;;;3.80;0.35;;;3.10;99.90;;;;;;4234883;28;20096;-84
2022/12/07 05:12:54;;;;;;;3.03;0.30;;;3.10;99.90;;;;;;4234577;28;20075;-86
2022/12/07 05:14:55;;;;;;;4.75;0.47;;;3.80;99.90;;;;;;4215524;28;20071;-85
2022/12/07 05:16:57;;;;;;;2.17;0.50;;;3.10;99.90;;;;;;4216228;28;20523;-85
2022/12/07 05:18:59;;;;;;;3.97;0.50;;;2.90;99.90;;;;;;4234272;28;20179;-85
2022/12/07 05:20:59;;;;;;;4.03;0.70;;;2.90;99.90;;;;;;4226300;28;20044;-85
2022/12/07 05:23:00;;;;;;;7.25;0.60;;;3.70;99.90;;;;;;4199429;28;20102;-85
2022/12/07 05:25:04;;;;;;;2.97;0.70;;;2.80;99.90;;;;;;4217702;28;20553;-85
2022/12/07 05:27:06;;;;;;;6.45;0.82;;;2.80;99.90;;;;;;4216521;28;20044;-85
2022/12/07 05:29:15;;;;;;;2.10;0.60;;;4.10;99.90;;;;;;4203571;28;20052;-84
2022/12/07 05:31:16;;;;;;;3.80;0.88;;;2.80;99.90;;;;;;4216670;28;20052;-85
2022/12/07 05:33:18;;;;;;;5.35;0.70;;;2.80;99.90;;;;;;4216719;28;20044;-85
2022/12/07 05:35:19;;;;;;;6.22;0.60;;;2.70;99.90;;;;;;4200883;28;20576;-85
2022/12/07 05:37:20;;;;;;;4.90;0.43;;;3.40;99.90;;;;;;4234747;28;20036;-84
2022/12/07 05:39:21;;;;;;;6.85;0.50;;;3.10;99.90;;;;;;4234598;28;20523;-85
2022/12/07 05:43:42;;;;;;;3.42;0.57;;;2.60;99.90;;;;;;4238593;28;20056;-84
2022/12/07 05:45:42;;;;;;;5.40;0.43;;;2.70;99.90;;;;;;4216801;28;20043;-83
2022/12/07 05:47:44;;;;;;;7.47;0.52;;;2.60;99.90;;;;;;4224020;28;20040;-84
2022/12/07 05:49:46;;;;;;;4.60;0.65;;;2.70;99.90;;;;;;4209578;28;20217;-85
2022/12/07 05:51:47;;;;;;;6.60;0.82;;;2.60;99.90;;;;;;4229205;28;20147;-83
2022/12/07 05:53:47;;;;;;;7.38;0.60;;;2.60;99.90;;;;;;4223297;28;20089;-83
2022/12/07 05:55:48;;;;;;;9.18;0.65;;;2.70;99.90;;;;;;4216899;28;20047;-83
2022/12/07 06:00:11;;;;;;;7.00;0.70;;;2.60;99.90;;;;;;4217567;28;20039;-83
2022/12/07 06:02:15;;;;;;;5.60;1.00;;;2.60;99.90;;;;;;4221474;28;20415;-82
2022/12/07 06:04:25;;;;;;;8.85;0.70;;;2.60;99.90;;;;;;4233500;28;20407;-84
2022/12/07 06:06:27;;;;;;;5.75;1.30;;;2.60;99.90;;;;;;4234178;28;20043;-83
2022/12/07 06:08:28;;;;;;;4.10;0.50;;;3.30;99.90;;;;;;4232248;28;20043;-84
2022/12/07 06:10:29;;;;;;;18.75;1.63;;;2.60;99.90;;;;;;4233161;27;20065;-84
2022/12/07 06:12:34;;;;;;;12.23;0.70;;;3.50;99.90;;;;;;4215312;28;20082;-83
2022/12/07 06:14:35;;;;;;;6.03;0.73;;;2.70;99.90;;;;;;4233295;28;20431;-83
2022/12/07 06:16:36;;;;;;;5.60;1.33;;;4.20;99.90;;;;;;4233359;28;20159;-83
2022/12/07 06:18:38;;;;;;;7.80;0.65;;;4.20;99.90;;;;;;4230206;28;20051;-84
2022/12/07 06:20:40;;;;;;;6.47;0.52;;;2.80;99.90;;;;;;4215387;28;20056;-84
2022/12/07 06:22:41;;;;;;;3.88;0.90;;;3.40;99.90;;;;;;4231951;28;20123;-84
2022/12/07 06:24:42;;;;;;;3.88;0.40;;;4.30;99.90;;;;;;4233354;28;20050;-84
2022/12/07 06:26:44;;;;;;;7.97;1.00;;;2.80;99.90;;;;;;4233090;28;20043;-84
2022/12/07 06:28:44;;;;;;;7.07;0.60;;;2.80;99.90;;;;;;4234697;28;20479;-84
2022/12/07 06:30:45;;;;;;;3.00;0.63;;;2.80;99.90;;;;;;4234384;28;20047;-85
2022/12/07 06:32:48;;;;;;;3.67;1.25;;;3.00;99.90;;;;;;4230888;28;20055;-87
2022/12/07 06:34:49;;;;;;;7.72;0.70;;;2.80;99.90;;;;;;4217409;28;20040;-86
2022/12/07 06:36:53;;;;;;;10.45;0.63;;;3.70;99.90;;;;;;4206351;28;20535;-85
2022/12/07 06:38:54;;;;;;;4.07;0.82;;;3.00;99.90;;;;;;4198973;28;20044;-85
2022/12/07 06:40:55;;;;;;;7.40;0.80;;;2.80;99.90;;;;;;4215834;28;20529;-86
2022/12/07 06:42:55;;;;;;;2.28;0.90;;;2.80;99.90;;;;;;4216909;28;20051;-85
2022/12/07 06:44:57;;;;;;;3.25;0.60;;;2.80;99.90;;;;;;4214785;28;20510;-84
2022/12/07 06:46:58;;;;;;;18.17;1.25;;;3.30;99.90;;;;;;4198162;28;20048;-85
2022/12/07 06:48:58;;;;;;;3.08;0.40;;;2.90;99.90;;;;;;4198391;28;20080;-85
2022/12/07 06:50:59;;;;;;;3.58;0.50;;;4.10;99.90;;;;;;4214850;28;20051;-85
2022/12/07 06:53:00;;;;;;;4.20;1.17;;;2.70;99.90;;;;;;4215570;28;20036;-84
2022/12/07 06:55:02;;;;;;;4.60;0.45;;;3.20;99.90;;;;;;4198365;28;20045;-85
2022/12/07 06:57:03;;;;;;;4.30;0.50;;;2.60;99.90;;;;;;4198679;28;20055;-85
2022/12/07 06:59:06;;;;;;;4.38;0.90;;;2.60;99.90;;;;;;4215624;28;20508;-85
2022/12/07 07:01:12;;;;;;;5.32;0.90;;;2.60;99.90;;;;;;4215692;28;20078;-85
2022/12/07 07:03:13;;;;;;;3.65;1.05;;;2.60;99.90;;;;;;4199019;28;20108;-85
2022/12/07 07:05:13;;;;;;;5.25;1.17;;;2.60;99.90;;;;;;4216660;28;20036;-84
2022/12/07 07:07:15;;;;;;;1.50;0.50;;;3.00;99.90;;;;;;4200822;28;20131;-84
2022/12/07 07:09:18;;;;;;;4.00;0.50;;;2.70;99.90;;;;;;4199880;28;20079;-85
2022/12/07 07:11:19;;;;;;;6.38;0.88;;;2.70;99.90;;;;;;4233787;28;20404;-85
2022/12/07 07:13:22;;;;;;;7.88;1.10;;;2.80;99.90;;;;;;4234461;27;20052;-85
2022/12/07 07:15:24;;;;;;;3.55;0.52;;;2.80;99.90;;;;;;4234677;28;20036;-85
2022/12/07 07:17:24;;;;;;;3.22;0.80;;;2.90;99.90;;;;;;4235527;28;20172;-85
2022/12/07 07:19:25;;;;;;;6.72;1.38;;;2.90;99.90;;;;;;4216188;28;20047;-85
2022/12/07 07:21:28;;;;;;;4.47;0.75;;;3.20;99.90;;;;;;4232986;28;20601;-84
2022/12/07 07:23:30;;;;;;;6.85;0.43;;;3.10;99.90;;;;;;4232849;28;20079;-85
2022/12/07 07:25:31;;;;;;;2.38;0.50;;;3.00;99.90;;;;;;4225157;28;20040;-84
2022/12/07 07:27:32;;;;;;;3.92;0.90;;;3.20;99.90;;;;;;4218598;28;20040;-84
2022/12/07 07:29:33;;;;;;;7.65;0.88;;;3.10;99.90;;;;;;4217369;28;20068;-84
2022/12/07 07:31:35;;;;;;;6.72;1.25;;;3.20;99.90;;;;;;4225231;28;20054;-84
2022/12/07 07:33:37;;;;;;;1.98;0.35;;;3.20;99.90;;;;;;4215142;28;20036;-84
2022/12/07 07:35:38;;;;;;;5.75;0.50;;;3.20;99.90;;;;;;4233685;28;20551;-84
2022/12/07 07:37:39;;;;;;;5.43;0.60;;;4.10;99.90;;;;;;4215066;28;20076;-85
2022/12/07 07:39:40;;;;;;;4.22;0.70;;;3.90;99.90;;;;;;4232267;28;20054;-85
2022/12/07 07:41:42;;;;;;;1.90;0.38;;;3.30;99.90;;;;;;4233205;28;20040;-85
2022/12/07 07:43:42;;;;;;;3.30;1.05;;;3.90;99.90;;;;;;4224276;28;20051;-84
2022/12/07 07:45:45;;;;;;;3.63;0.75;;;3.70;99.90;;;;;;4199947;28;20056;-84
2022/12/07 07:47:46;;;;;;;10.23;1.52;;;3.30;99.90;;;;;;4201707;28;20053;-84
2022/12/07 07:49:47;;;;;;;2.72;0.57;;;3.30;99.90;;;;;;4217917;28;20058;-85
2022/12/07 07:51:48;;;;;;;7.18;0.40;;;3.30;99.90;;;;;;4218550;28;20559;-83
2022/12/07 07:53:49;;;;;;;3.25;0.63;;;3.70;99.90;;;;;;4199564;28;20096;-82
2022/12/07 07:55:53;;;;;;;4.85;0.57;;;3.40;99.90;;;;;;4217636;28;20048;-83
2022/12/07 07:57:54;;;;;;;3.83;0.68;;;3.30;99.90;;;;;;4216604;28;20055;-85
2022/12/07 07:59:55;;;;;;;5.70;0.60;;;3.30;99.90;;;;;;4217867;28;20043;-85
2022/12/07 08:01:56;;;;;;;2.03;0.50;;;3.20;99.90;;;;;;4199203;28;20040;-85
2022/12/07 08:03:57;;;;;;;3.55;0.40;;;3.20;99.90;;;;;;4217425;28;20123;-85
2022/12/07 08:05:58;;;;;;;3.28;0.55;;;4.30;99.90;;;;;;4199110;28;20044;-85
2022/12/07 08:07:59;;;;;;;5.07;0.60;;;3.40;99.90;;;;;;4218899;28;20408;-85
2022/12/07 08:09:59;;;;;;;6.68;0.60;;;3.20;99.90;;;;;;4219239;28;20044;-85
2022/12/07 08:12:01;;;;;;;2.38;0.60;;;3.00;99.90;;;;;;4218806;28;20095;-84
2022/12/07 08:14:04;;;;;;;4.05;0.63;;;3.10;99.90;;;;;;4217444;28;20153;-85
2022/12/07 08:16:07;;;;;;;6.53;1.35;;;4.30;99.90;;;;;;4198358;28;20081;-84
2022/12/07 08:18:09;;;;;;;2.45;0.80;;;3.10;99.90;;;;;;4199373;28;20078;-84
2022/12/07 08:20:10;;;;;;;5.05;0.40;;;4.00;99.90;;;;;;4216062;28;20046;-84
2022/12/07 08:22:11;;;;;;;4.28;0.50;;;;;;;;;;4216864;28;20457;-84
2022/12/07 08:24:12;;;;;;;2.47;0.40;;;3.10;99.90;;;;;;4218411;28;20080;-85
2022/12/07 08:26:15;;;;;;;7.53;0.95;;;4.10;99.90;;;;;;4199343;28;20050;-83
2022/12/07 08:28:21;;;;;;;2.40;1.00;;;4.20;99.90;;;;;;4221193;28;20067;-83
2022/12/07 08:30:22;;;;;;;6.82;0.73;;;3.40;99.90;;;;;;4216076;28;20048;-83
2022/12/07 08:32:24;;;;;;;3.70;0.90;;;3.50;99.90;;;;;;4198540;28;20402;-83
2022/12/07 08:34:26;;;;;;;8.60;0.65;;;3.70;99.90;;;;;;4214639;28;20044;-83
2022/12/07 08:36:27;;;;;;;7.03;1.25;;;3.90;99.90;;;;;;4215013;28;20079;-85
2022/12/07 08:38:28;;;;;;;6.65;1.10;;;3.90;99.90;;;;;;4214587;28;20056;-84
2022/12/07 08:40:29;;;;;;;4.10;0.50;;;4.80;99.90;;;;;;4215953;28;20459;-84
2022/12/07 08:42:37;;;;;;;8.00;0.95;;;3.30;99.90;;;;;;4215084;28;20173;-84
2022/12/07 08:44:40;;;;;;;4.07;0.80;;;3.00;99.90;;;;;;4198453;28;20521;-83
2022/12/07 08:46:51;;;;;;;8.77;1.55;;;3.10;99.90;;;;;;4199028;28;20486;-84
2022/12/07 08:49:06;;;;;;;3.10;0.65;;;4.60;99.90;;;;;;4216710;28;20119;-84
2022/12/07 08:51:08;;;;;;;6.15;0.80;;;5.10;99.90;;;;;;4218432;28;20101;-84
2022/12/07 08:53:08;;;;;;;5.22;0.60;;;5.50;99.90;;;;;;4217182;28;20054;-85
2022/12/07 08:55:11;;;;;;;7.57;0.60;;;6.20;99.90;;;;;;4219085;28;20040;-85
2022/12/07 08:57:13;;;;;;;6.07;0.75;;;6.30;99.90;;;;;;4218192;28;20052;-85
2022/12/07 08:59:15;;;;;;;7.18;0.60;;;6.70;99.90;;;;;;4217314;28;20036;-85
2022/12/07 09:01:17;;;;;;;3.92;0.77;;;7.50;99.90;;;;;;4218687;28;20139;-85
2022/12/07 09:03:21;;;;;;;3.05;0.50;;;7.50;99.90;;;;;;4220376;28;20055;-85
2022/12/07 09:05:24;;;;;;;3.08;0.57;;;8.00;99.90;;;;;;4218729;28;20040;-84
2022/12/07 09:07:26;;;;;;;0.73;0.30;;;8.10;99.90;;;;;;4218718;28;20051;-84
2022/12/07 09:09:26;;;;;;;6.63;0.32;;;7.70;99.90;;;;;;4200423;28;20048;-84
2022/12/07 09:11:27;;;;;;;7.32;0.73;;;7.40;99.90;;;;;;4219244;28;20544;-84
2022/12/07 09:13:28;;;;;;;3.17;0.40;;;7.30;99.90;;;;;;4206334;28;20055;-85
2022/12/07 09:15:31;;;;;;;5.65;0.98;;;7.30;99.90;;;;;;4220190;28;20071;-85
2022/12/07 09:17:33;;;;;;;4.90;0.77;;;7.20;99.90;;;;;;4223481;28;20047;-85
2022/12/07 09:19:35;;;;;;;8.02;1.15;;;7.40;99.90;;;;;;4223010;28;20052;-85
2022/12/07 09:21:37;;;;;;;12.32;1.33;;;8.20;99.90;;;;;;4224008;28;20054;-85
2022/12/07 09:23:38;;;;;;;4.05;0.88;;;9.10;99.90;;;;;;4224738;28;20039;-85
2022/12/07 09:25:39;;;;;;;2.65;0.80;;;9.70;99.90;;;;;;4224191;28;20050;-85
2022/12/07 09:27:44;;;;;;;7.45;0.40;;;9.80;99.90;;;;;;4224509;28;20040;-86
2022/12/07 09:29:46;;;;;;;4.38;1.10;;;9.90;99.90;;;;;;4216818;28;20090;-84
2022/12/07 09:31:47;;;;;;;3.35;0.47;;;10.20;99.90;;;;;;4223778;28;20513;-84
2022/12/07 09:33:54;;;;;;;0.88;0.35;;;9.90;99.90;;;;;;4223451;28;20056;-85
2022/12/07 09:35:55;;;;;;;4.55;0.47;;;9.20;99.90;;;;;;4214595;28;20561;-85
2022/12/07 09:37:57;;;;;;;3.35;0.30;;;8.60;99.90;;;;;;4218461;28;20166;-84
2022/12/07 09:39:58;;;;;;;2.45;0.47;;;8.10;99.90;;;;;;4231760;28;20215;-86
2022/12/07 09:42:02;;;;;;;1.33;0.40;;;7.60;99.90;;;;;;4232868;28;20180;-85
2022/12/07 09:44:12;;;;;;;4.07;0.35;;;7.40;99.90;;;;;;4232791;28;20044;-86
2022/12/07 09:46:17;;;;;;;2.85;0.73;;;7.10;99.90;;;;;;4209623;28;20127;-84
2022/12/07 09:48:25;;;;;;;2.33;0.30;;;6.90;99.90;;;;;;4217052;28;20512;-84
2022/12/07 09:50:28;;;;;;;10.13;0.60;;;6.80;99.90;;;;;;4217132;28;20130;-84
2022/12/07 09:52:30;;;;;;;2.30;0.43;;;6.70;99.90;;;;;;4215115;28;20048;-85
2022/12/07 09:54:33;;;;;;;4.43;0.43;;;6.60;99.90;;;;;;4216662;28;20532;-85
2022/12/07 09:56:34;;;;;;;2.58;0.30;;;6.50;99.90;;;;;;4217615;28;20107;-85
2022/12/07 09:58:36;;;;;;;2.38;0.40;;;6.40;99.90;;;;;;4217693;28;20055;-85
2022/12/07 10:00:38;;;;;;;5.65;0.98;;;6.40;99.90;;;;;;4216426;28;20048;-85
2022/12/07 10:02:55;;;;;;;1.17;0.20;;;6.30;99.90;;;;;;4202956;28;20090;-85
2022/12/07 10:04:57;;;;;;;0.55;0.28;;;6.80;99.90;;;;;;4228551;28;20070;-85
2022/12/07 10:06:59;;;;;;;3.13;0.55;;;6.20;99.90;;;;;;4211030;28;20048;-84
2022/12/07 10:09:02;;;;;;;4.40;0.38;;;6.20;99.90;;;;;;4228890;28;20104;-84
2022/12/07 10:11:03;;;;;;;2.70;0.57;;;6.30;99.90;;;;;;4211861;28;20045;-84
2022/12/07 10:13:14;;;;;;;5.57;0.60;;;6.50;99.90;;;;;;4228483;28;20258;-85
2022/12/07 10:15:15;;;;;;;3.90;0.50;;;7.20;99.90;;;;;;4229875;28;20048;-85
2022/12/07 10:17:25;;;;;;;4.95;0.60;;;6.90;99.90;;;;;;4209855;28;20091;-83
2022/12/07 10:19:26;;;;;;;2.22;0.40;;;7.00;99.90;;;;;;4228302;28;20047;-85
2022/12/07 10:21:28;;;;;;;5.85;0.60;;;6.90;99.90;;;;;;4228899;28;20044;-85
2022/12/07 10:23:29;;;;;;;2.10;0.45;;;6.90;99.90;;;;;;4230663;28;20104;-85
2022/12/07 10:25:35;;;;;;;5.88;0.65;;;6.90;99.90;;;;;;4228976;28;20080;-85
2022/12/07 10:27:36;;;;;;;3.65;0.70;;;6.90;99.90;;;;;;4228032;28;20646;-85
2022/12/07 10:29:38;;;;;;;1.98;0.50;;;7.00;99.90;;;;;;4225283;28;20052;-84
2022/12/07 10:31:41;;;;;;;4.80;0.68;;;7.00;99.90;;;;;;4218836;28;20074;-85
2022/12/07 10:33:52;;;;;;;4.63;0.63;;;7.00;99.90;;;;;;4215973;28;20060;-85
2022/12/07 10:35:53;;;;;;;4.40;0.40;;;7.50;99.90;;;;;;4216338;28;20052;-85
2022/12/07 10:37:58;;;;;;;3.47;0.63;;;7.20;99.90;;;;;;4198671;28;20055;-85
2022/12/07 10:39:59;;;;;;;5.57;0.63;;;7.20;99.90;;;;;;4215870;28;20136;-85
2022/12/07 10:42:03;;;;;;;5.65;0.75;;;7.10;99.90;;;;;;4199139;28;20040;-85
2022/12/07 10:44:19;;;;;;;6.50;0.95;;;7.10;99.90;;;;;;4215123;28;20051;-85
2022/12/07 10:46:29;;;;;;;7.07;1.35;;;7.10;99.90;;;;;;4216191;28;20075;-84
2022/12/07 10:48:44;;;;;;;2.80;0.60;;;7.00;99.90;;;;;;4199180;28;20049;-85
2022/12/07 10:51:01;;;;;;;8.02;1.33;;;7.00;99.90;;;;;;4217020;28;20079;-85
2022/12/07 10:53:29;;;;;;;5.63;0.60;;;6.90;99.90;;;;;;4216491;28;20044;-86
2022/12/07 10:55:53;;;;;;;3.60;0.50;;;6.80;99.90;;;;;;4216041;28;20052;-85
2022/12/07 10:58:15;;;;;;;2.35;0.28;;;6.60;99.90;;;;;;4193792;28;20109;-85
2022/12/07 11:00:23;;;;;;;7.47;0.38;;;6.40;99.90;;;;;;4216193;28;20047;-85